createdAt,value
2023-03-20T00:00:26.670Z,35.74
2023-03-20T00:03:13.407Z,35.76
2023-03-20T00:05:59.297Z,35.83
2023-03-20T00:08:46.194Z,35.99
2023-03-20T00:11:37.205Z,36.09
2023-03-20T00:14:24.830Z,35.92
2023-03-20T00:17:18.237Z,35.94
2023-03-20T00:20:04.650Z,35.99
2023-03-20T00:22:51.266Z,36.04
2023-03-20T00:25:37.948Z,36.05
2023-03-20T00:28:50.321Z,36.37
2023-03-20T00:31:38.398Z,36.24
2023-03-20T00:34:27.376Z,36.44
2023-03-20T00:37:13.599Z,36.34
2023-03-20T00:39:59.736Z,36.14
2023-03-20T00:42:49.237Z,36.25
2023-03-20T00:45:36.323Z,36.44
2023-03-20T00:48:22.548Z,36.44
2023-03-20T00:51:09.702Z,36.12
2023-03-20T00:53:56.016Z,36.68
2023-03-20T00:56:55.086Z,36.66
2023-03-20T00:59:53.592Z,36.97
2023-03-20T01:02:39.757Z,36.48
2023-03-20T01:05:27.470Z,36.61
2023-03-20T01:08:22.501Z,36.77
2023-03-20T01:11:10.363Z,36.46
2023-03-20T01:13:56.288Z,36.66
2023-03-20T01:16:42.942Z,37.22
2023-03-20T01:19:29.357Z,36.70
2023-03-20T01:22:15.726Z,37.24
2023-03-20T01:25:02.707Z,36.75
2023-03-20T01:27:53.777Z,37.17
2023-03-20T01:30:39.973Z,37.21
2023-03-20T01:33:26.663Z,37.50
2023-03-20T01:36:16.130Z,37.24
2023-03-20T01:39:02.564Z,37.21
2023-03-20T01:41:49.050Z,36.93
2023-03-20T01:44:36.546Z,37.30
2023-03-20T01:47:26.116Z,37.27
2023-03-20T01:50:26.592Z,37.94
2023-03-20T01:53:34.531Z,37.65
2023-03-20T01:56:20.991Z,37.56
2023-03-20T01:59:18.609Z,37.38
2023-03-20T02:02:05.898Z,37.31
2023-03-20T02:04:55.658Z,37.63
2023-03-20T02:07:41.813Z,37.44
2023-03-20T02:10:29.508Z,37.69
2023-03-20T02:13:33.007Z,37.37
2023-03-20T02:16:20.138Z,38.02
2023-03-20T02:20:04.264Z,37.68
2023-03-20T02:23:26.071Z,38.02
2023-03-20T02:26:48.216Z,38.13
2023-03-20T02:29:43.102Z,38.59
2023-03-20T02:33:07.256Z,38.20
2023-03-20T02:36:24.509Z,38.64
2023-03-20T02:39:25.904Z,38.64
2023-03-20T02:42:18.772Z,38.49
2023-03-20T02:45:07.855Z,37.91
2023-03-20T02:48:20.532Z,38.74
2023-03-20T02:51:22.491Z,38.10
2023-03-20T02:54:21.533Z,38.62
2023-03-20T02:57:20.773Z,38.25
2023-03-20T03:00:11.906Z,38.42
2023-03-20T03:03:20.994Z,38.68
2023-03-20T03:06:23.933Z,38.56
2023-03-20T03:09:12.194Z,38.93
2023-03-20T03:12:05.572Z,38.81
2023-03-20T03:14:54.885Z,38.77
2023-03-20T03:17:43.289Z,39.06
2023-03-20T03:20:37.768Z,38.46
2023-03-20T03:23:29.569Z,38.65
2023-03-20T03:26:22.796Z,39.16
2023-03-20T03:29:15.871Z,38.84
2023-03-20T03:32:03.622Z,38.95
2023-03-20T03:34:50.279Z,38.69
2023-03-20T03:38:02.085Z,39.17
2023-03-20T03:40:58.824Z,38.63
2023-03-20T03:43:53.676Z,39.16
2023-03-20T03:46:58.232Z,38.96
2023-03-20T03:49:49.553Z,39.16
2023-03-20T03:52:36.678Z,39.02
2023-03-20T03:55:25.397Z,39.46
2023-03-20T03:58:43.239Z,39.56
2023-03-20T04:01:32.497Z,39.45
2023-03-20T04:04:20.567Z,39.24
2023-03-20T04:07:06.864Z,39.34
2023-03-20T04:09:52.591Z,39.10
2023-03-20T04:12:40.852Z,39.42
2023-03-20T04:15:29.369Z,39.69
2023-03-20T04:18:17.335Z,39.42
2023-03-20T04:21:05.303Z,39.87
2023-03-20T04:23:51.991Z,39.09
2023-03-20T04:26:40.535Z,39.77
2023-03-20T04:29:26.925Z,39.32
2023-03-20T04:32:32.989Z,39.34
2023-03-20T04:35:29.396Z,39.47
2023-03-20T04:38:18.396Z,39.53
2023-03-20T04:41:05.636Z,39.81
2023-03-20T04:43:51.976Z,39.80
2023-03-20T04:46:37.858Z,40.05
2023-03-20T04:49:29.569Z,39.96
2023-03-20T04:52:15.818Z,40.02
2023-03-20T04:55:03.676Z,40.08
2023-03-20T04:57:50.340Z,40.46
2023-03-20T05:00:36.321Z,40.41
2023-03-20T05:03:24.057Z,40.03
2023-03-20T05:06:10.694Z,40.44
2023-03-20T05:09:00.931Z,39.86
2023-03-20T05:11:49.370Z,40.32
2023-03-20T05:14:54.937Z,39.85
2023-03-20T05:17:56.696Z,40.23
2023-03-20T05:21:00.083Z,40.25
2023-03-20T05:24:07.528Z,40.51
2023-03-20T05:27:07.875Z,40.76
2023-03-20T05:30:23.182Z,40.76
2023-03-20T05:33:47.382Z,40.52
2023-03-20T05:36:44.995Z,40.55
2023-03-20T05:39:43.642Z,40.73
2023-03-20T05:42:58.852Z,40.56
2023-03-20T05:45:53.845Z,40.27
2023-03-20T05:48:49.408Z,40.80
2023-03-20T05:51:48.782Z,40.75
2023-03-20T05:54:47.571Z,40.84
2023-03-20T05:57:56.766Z,40.78
2023-03-20T06:01:01.146Z,40.75
2023-03-20T06:04:14.727Z,40.83
2023-03-20T06:07:29.799Z,40.66
2023-03-20T06:10:21.119Z,40.88
2023-03-20T06:13:08.859Z,41.16
2023-03-20T06:15:54.480Z,41.44
2023-03-20T06:18:41.938Z,41.22
2023-03-20T06:21:28.316Z,41.29
2023-03-20T06:24:15.035Z,41.13
2023-03-20T06:27:01.764Z,41.56
2023-03-20T06:29:48.037Z,41.45
2023-03-20T06:32:44.369Z,41.28
2023-03-20T06:35:31.671Z,41.07
2023-03-20T06:38:17.794Z,41.01
2023-03-20T06:41:03.903Z,41.30
2023-03-20T06:43:51.150Z,41.13
2023-03-20T06:46:39.094Z,41.29
2023-03-20T06:49:25.801Z,41.19
2023-03-20T06:52:17.317Z,41.22
2023-03-20T06:55:08.381Z,41.08
2023-03-20T06:57:54.074Z,41.58
2023-03-20T07:00:40.057Z,41.04
2023-03-20T07:03:28.541Z,41.24
2023-03-20T07:06:18.929Z,41.56
2023-03-20T07:09:05.602Z,41.41
2023-03-20T07:11:51.622Z,41.26
2023-03-20T07:14:37.436Z,41.09
2023-03-20T07:17:27.728Z,41.34
2023-03-20T07:20:14.302Z,41.40
2023-03-20T07:23:00.499Z,41.22
2023-03-20T07:25:49.895Z,41.18
2023-03-20T07:28:38.046Z,41.47
2023-03-20T07:31:32.512Z,41.21
2023-03-20T07:34:31.436Z,41.02
2023-03-20T07:37:19.638Z,41.04
2023-03-20T07:40:16.952Z,41.32
2023-03-20T07:43:29.145Z,40.90
2023-03-20T07:46:44.576Z,41.20
2023-03-20T07:49:30.867Z,41.39
2023-03-20T07:52:17.287Z,41.20
2023-03-20T07:55:03.313Z,41.22
2023-03-20T07:57:49.954Z,40.86
2023-03-20T08:00:37.385Z,40.85
2023-03-20T08:03:23.363Z,40.63
2023-03-20T08:06:10.110Z,41.05
2023-03-20T08:08:56.547Z,41.32
2023-03-20T08:11:42.794Z,41.04
2023-03-20T08:14:29.197Z,41.22
2023-03-20T08:17:18.017Z,41.11
2023-03-20T08:20:07.421Z,40.60
2023-03-20T08:22:53.462Z,40.64
2023-03-20T08:25:39.414Z,40.87
2023-03-20T08:28:44.115Z,40.89
2023-03-20T08:31:32.001Z,40.74
2023-03-20T08:34:18.109Z,40.99
2023-03-20T08:37:05.207Z,40.69
2023-03-20T08:39:51.316Z,41.03
2023-03-20T08:42:37.303Z,40.69
2023-03-20T08:45:26.237Z,40.61
2023-03-20T08:48:12.050Z,40.23
2023-03-20T08:50:58.036Z,40.81
2023-03-20T08:53:43.811Z,40.45
2023-03-20T08:56:29.713Z,40.27
2023-03-20T08:59:15.497Z,40.57
2023-03-20T09:02:01.513Z,40.36
2023-03-20T09:04:47.283Z,40.28
2023-03-20T09:07:33.147Z,40.41
2023-03-20T09:10:19.003Z,40.35
2023-03-20T09:13:23.412Z,40.19
2023-03-20T09:16:12.551Z,40.19
2023-03-20T09:18:59.813Z,40.07
2023-03-20T09:21:46.329Z,39.93
2023-03-20T09:24:33.069Z,40.18
2023-03-20T09:27:19.313Z,40.04
2023-03-20T09:30:09.399Z,40.05
2023-03-20T09:32:55.997Z,40.08
2023-03-20T09:35:43.641Z,40.29
2023-03-20T09:38:29.584Z,40.32
2023-03-20T09:41:26.139Z,40.11
2023-03-20T09:44:29.300Z,39.98
2023-03-20T09:47:28.074Z,40.22
2023-03-20T09:50:37.105Z,40.22
2023-03-20T09:53:37.077Z,39.65
2023-03-20T09:56:27.147Z,39.58
2023-03-20T09:59:15.541Z,40.05
2023-03-20T10:02:08.001Z,39.74
2023-03-20T10:04:55.016Z,39.72
2023-03-20T10:07:41.026Z,39.72
2023-03-20T10:10:48.031Z,39.35
2023-03-20T10:13:53.939Z,39.42
2023-03-20T10:17:05.276Z,39.75
2023-03-20T10:19:59.326Z,39.69
2023-03-20T10:22:48.776Z,39.54
2023-03-20T10:25:39.435Z,39.37
2023-03-20T10:28:36.789Z,39.42
2023-03-20T10:31:45.799Z,39.58
2023-03-20T10:35:13.398Z,39.23
2023-03-20T10:38:22.623Z,37.67
2023-03-20T10:41:15.323Z,39.01
2023-03-20T10:44:02.400Z,39.24
2023-03-20T10:46:52.996Z,38.91
2023-03-20T10:49:55.419Z,39.05
2023-03-20T10:52:41.853Z,39.33
2023-03-20T10:55:35.659Z,38.97
2023-03-20T10:58:24.208Z,38.70
2023-03-20T11:01:10.128Z,38.61
2023-03-20T11:03:56.537Z,38.55
2023-03-20T11:06:49.991Z,38.71
2023-03-20T11:09:36.417Z,38.55
2023-03-20T11:12:22.329Z,38.56
2023-03-20T11:15:27.045Z,38.36
2023-03-20T11:18:16.484Z,38.16
2023-03-20T11:21:03.702Z,38.08
2023-03-20T11:23:50.520Z,38.47
2023-03-20T11:26:38.812Z,38.08
2023-03-20T11:29:30.398Z,38.01
2023-03-20T11:32:27.160Z,37.76
2023-03-20T11:35:19.437Z,37.63
2023-03-20T11:38:17.707Z,37.80
2023-03-20T11:41:05.396Z,37.59
2023-03-20T11:43:51.333Z,37.63
2023-03-20T11:46:37.540Z,37.81
2023-03-20T11:49:30.368Z,37.74
2023-03-20T11:52:21.970Z,37.34
2023-03-20T11:55:24.969Z,37.91
2023-03-20T11:58:15.514Z,37.32
2023-03-20T12:01:02.276Z,37.55
2023-03-20T12:04:11.381Z,37.53
2023-03-20T12:07:05.100Z,37.02
2023-03-20T12:09:53.249Z,36.79
2023-03-20T12:12:47.791Z,36.55
2023-03-20T12:15:37.073Z,36.74
2023-03-20T12:18:27.142Z,36.57
2023-03-20T12:21:21.122Z,36.55
2023-03-20T12:24:28.454Z,36.59
2023-03-20T12:27:23.372Z,34.78
2023-03-20T12:30:15.753Z,36.35
2023-03-20T12:33:10.529Z,36.18
2023-03-20T12:35:58.493Z,36.09
2023-03-20T12:38:46.046Z,36.05
2023-03-20T12:42:04.763Z,35.41
2023-03-20T12:45:12.493Z,36.12
2023-03-20T12:48:19.824Z,35.60
2023-03-20T12:51:24.426Z,35.67
2023-03-20T12:54:22.475Z,34.90
2023-03-20T12:57:28.666Z,35.61
2023-03-20T13:00:32.163Z,34.49
2023-03-20T13:03:28.426Z,35.50
2023-03-20T13:06:21.562Z,35.41
2023-03-20T13:09:20.048Z,34.79
2023-03-20T13:12:35.591Z,35.30
2023-03-20T13:15:42.863Z,34.91
2023-03-20T13:18:49.168Z,34.95
2023-03-20T13:21:43.623Z,34.53
2023-03-20T13:24:33.829Z,34.42
2023-03-20T13:27:34.386Z,34.34
2023-03-20T13:30:50.427Z,34.45
2023-03-20T13:34:12.144Z,33.09
2023-03-20T13:37:19.905Z,32.89
2023-03-20T13:40:39.486Z,34.27
2023-03-20T13:43:35.996Z,33.64
2023-03-20T13:46:28.207Z,33.37
2023-03-20T13:49:37.837Z,33.79
2023-03-20T13:52:45.764Z,33.46
2023-03-20T13:56:01.938Z,33.58
2023-03-20T13:59:39.047Z,33.82
2023-03-20T14:02:31.217Z,33.13
2023-03-20T14:05:23.291Z,33.02
2023-03-20T14:08:38.744Z,33.43
2023-03-20T14:11:24.807Z,32.32
2023-03-20T14:14:31.870Z,32.32
2023-03-20T14:17:25.245Z,30.86
2023-03-20T14:20:16.642Z,30.76
2023-03-20T14:23:03.208Z,30.60
2023-03-20T14:25:49.519Z,30.37
2023-03-20T14:28:53.285Z,29.83
2023-03-20T14:31:42.275Z,30.07
2023-03-20T14:34:47.991Z,30.15
2023-03-20T14:37:39.600Z,29.96
2023-03-20T14:40:29.790Z,30.30
2023-03-20T14:43:52.020Z,28.88
2023-03-20T14:47:02.962Z,30.02
2023-03-20T14:49:53.556Z,29.69
2023-03-20T14:53:01.685Z,30.04
2023-03-20T14:55:55.769Z,29.50
2023-03-20T14:59:02.044Z,29.64
2023-03-20T15:01:53.802Z,29.45
2023-03-20T15:04:41.825Z,29.79
2023-03-20T15:07:30.438Z,29.63
2023-03-20T15:10:19.058Z,29.45
2023-03-20T15:13:07.846Z,29.21
2023-03-20T15:16:05.211Z,29.20
2023-03-20T15:18:52.461Z,29.48
2023-03-20T15:21:40.809Z,29.63
2023-03-20T15:24:28.855Z,29.43
2023-03-20T15:27:14.667Z,29.83
2023-03-20T15:30:01.134Z,29.88
2023-03-20T15:32:48.836Z,29.64
2023-03-20T15:35:35.040Z,29.68
2023-03-20T15:38:21.262Z,30.08
2023-03-20T15:41:08.247Z,30.07
2023-03-20T15:43:54.227Z,30.22
2023-03-20T15:46:41.034Z,29.94
2023-03-20T15:49:27.989Z,30.26
2023-03-20T15:52:22.262Z,29.98
2023-03-20T15:55:14.775Z,30.19
2023-03-20T15:58:02.297Z,30.39
2023-03-20T16:00:48.839Z,30.37
2023-03-20T16:03:38.271Z,30.45
2023-03-20T16:06:25.645Z,30.43
2023-03-20T16:09:15.261Z,30.36
2023-03-20T16:12:03.136Z,30.56
2023-03-20T16:14:50.005Z,30.42
2023-03-20T16:17:36.235Z,30.54
2023-03-20T16:20:22.555Z,30.47
2023-03-20T16:23:09.238Z,30.53
2023-03-20T16:26:01.167Z,30.37
2023-03-20T16:28:58.515Z,30.58
2023-03-20T16:32:06.886Z,30.68
2023-03-20T16:34:56.374Z,30.78
2023-03-20T16:37:44.787Z,30.72
2023-03-20T16:40:35.260Z,30.84
2023-03-20T16:43:29.569Z,30.77
2023-03-20T16:46:23.458Z,30.74
2023-03-20T16:49:44.550Z,30.90
2023-03-20T16:52:33.323Z,30.87
2023-03-20T16:55:24.213Z,30.90
2023-03-20T16:58:16.963Z,31.00
2023-03-20T17:01:15.844Z,31.09
2023-03-20T17:04:35.387Z,31.23
2023-03-20T17:07:28.053Z,31.22
2023-03-20T17:10:16.912Z,31.23
2023-03-20T17:13:02.873Z,31.29
2023-03-20T17:15:48.788Z,31.45
2023-03-20T17:18:35.496Z,31.40
2023-03-20T17:21:21.749Z,31.46
2023-03-20T17:24:08.277Z,31.65
2023-03-20T17:26:58.240Z,31.40
2023-03-20T17:29:45.106Z,31.67
2023-03-20T17:32:32.337Z,31.67
2023-03-20T17:35:18.475Z,31.65
2023-03-20T17:38:04.455Z,31.65
2023-03-20T17:40:51.347Z,31.78
2023-03-20T17:43:37.594Z,31.45
2023-03-20T17:46:28.925Z,31.94
2023-03-20T17:49:16.368Z,31.84
2023-03-20T17:52:02.393Z,32.04
2023-03-20T17:54:48.420Z,32.13
2023-03-20T17:57:37.116Z,32.08
2023-03-20T18:00:24.325Z,32.08
2023-03-20T18:03:11.162Z,32.24
2023-03-20T18:05:57.358Z,32.47
2023-03-20T18:08:43.231Z,32.09
2023-03-20T18:11:29.910Z,32.16
2023-03-20T18:14:18.873Z,32.20
2023-03-20T18:17:05.072Z,32.14
2023-03-20T18:19:50.979Z,32.33
2023-03-20T18:22:36.983Z,32.38
2023-03-20T18:25:25.962Z,32.43
2023-03-20T18:28:22.616Z,32.28
2023-03-20T18:31:08.951Z,32.22
2023-03-20T18:33:55.205Z,32.48
2023-03-20T18:36:41.159Z,32.52
2023-03-20T18:39:27.597Z,32.33
2023-03-20T18:42:13.420Z,32.49
2023-03-20T18:44:59.231Z,32.89
2023-03-20T18:47:45.667Z,32.73
2023-03-20T18:50:37.543Z,32.60
2023-03-20T18:53:24.217Z,32.57
2023-03-20T18:56:25.662Z,32.84
2023-03-20T18:59:12.890Z,32.79
2023-03-20T19:01:58.796Z,32.83
2023-03-20T19:04:44.525Z,32.98
2023-03-20T19:07:30.362Z,32.79
2023-03-20T19:10:25.024Z,33.04
2023-03-20T19:13:17.269Z,33.05
2023-03-20T19:16:03.340Z,33.42
2023-03-20T19:18:52.553Z,33.38
2023-03-20T19:21:38.759Z,33.18
2023-03-20T19:24:25.155Z,33.42
2023-03-20T19:27:17.443Z,33.67
2023-03-20T19:30:05.947Z,33.34
2023-03-20T19:32:52.105Z,33.51
2023-03-20T19:35:58.798Z,33.16
2023-03-20T19:38:43.826Z,33.25
2023-03-20T19:41:32.175Z,33.42
2023-03-20T19:44:19.121Z,33.40
2023-03-20T19:47:05.229Z,33.63
2023-03-20T19:49:51.413Z,33.47
2023-03-20T19:52:37.242Z,33.52
2023-03-20T19:55:25.054Z,33.62
2023-03-20T19:58:11.100Z,33.49
2023-03-20T20:01:11.645Z,33.74
2023-03-20T20:04:00.252Z,33.82
2023-03-20T20:06:47.353Z,33.99
2023-03-20T20:09:33.791Z,33.67
2023-03-20T20:12:19.561Z,33.56
2023-03-20T20:15:07.878Z,33.62
2023-03-20T20:17:54.218Z,33.67
2023-03-20T20:21:24.546Z,33.79
2023-03-20T20:23:48.524Z,33.84
2023-03-20T20:26:39.013Z,33.97
2023-03-20T20:29:27.136Z,33.95
2023-03-20T20:32:13.275Z,33.58
2023-03-20T20:35:40.610Z,34.02
2023-03-20T20:41:12.239Z,34.11
2023-03-20T20:44:15.761Z,34.08
2023-03-20T20:47:02.304Z,34.19
2023-03-20T20:49:48.169Z,34.20
2023-03-20T20:52:35.800Z,34.46
2023-03-20T20:55:24.147Z,34.35
2023-03-20T20:58:11.462Z,34.49
2023-03-20T21:01:01.330Z,34.74
2023-03-20T21:03:47.340Z,34.58
2023-03-20T21:07:03.775Z,34.64
2023-03-20T21:09:40.454Z,34.53
2023-03-20T21:12:36.239Z,34.62
2023-03-20T21:15:26.698Z,34.68
2023-03-20T21:18:12.512Z,34.47
2023-03-20T21:21:10.174Z,34.94
2023-03-20T21:23:56.203Z,34.93
2023-03-20T21:26:42.044Z,34.84
2023-03-20T21:29:31.557Z,34.80
2023-03-20T21:32:20.797Z,34.98
2023-03-20T21:35:08.982Z,34.93
2023-03-20T21:41:08.075Z,35.26
2023-03-20T21:43:54.104Z,35.03
2023-03-20T21:47:09.701Z,34.81
2023-03-20T21:53:28.735Z,35.04
2023-03-20T21:56:40.230Z,35.50
2023-03-20T22:02:23.559Z,35.27
2023-03-20T22:21:22.333Z,35.69
2023-03-20T22:37:01.564Z,35.77
2023-03-20T22:45:37.993Z,36.04
2023-03-20T22:48:28.852Z,36.05
2023-03-20T22:51:14.534Z,36.11
2023-03-20T22:54:00.455Z,36.02
2023-03-20T22:56:46.494Z,35.94
2023-03-20T22:59:32.288Z,36.32
2023-03-20T23:02:18.129Z,36.28
2023-03-20T23:05:04.239Z,36.18
2023-03-20T23:07:50.280Z,36.53
2023-03-20T23:10:38.222Z,36.33
2023-03-20T23:13:24.467Z,36.54
2023-03-20T23:16:10.618Z,36.55
2023-03-20T23:18:56.964Z,36.71
2023-03-20T23:21:43.197Z,36.68
2023-03-20T23:24:29.309Z,36.61
2023-03-20T23:27:15.513Z,36.87
2023-03-20T23:30:01.602Z,36.77
2023-03-20T23:32:47.499Z,36.84
2023-03-20T23:35:33.535Z,36.85
2023-03-20T23:38:19.439Z,37.23
2023-03-20T23:41:06.000Z,36.93
2023-03-20T23:43:52.649Z,37.06
2023-03-20T23:46:38.523Z,37.10
2023-03-20T23:49:24.634Z,37.06
2023-03-20T23:52:10.381Z,37.19
2023-03-20T23:54:56.296Z,37.41
2023-03-20T23:57:42.387Z,37.00
